sensor_id;sensor_type;location;lat;lon;timestamp;P1;durP1;ratioP1;P2;durP2;ratioP2
18740;SDS011;9499;52.472;13.448;2022-07-12T00:01:51;1.70;;;1.30;;
18740;SDS011;9499;52.472;13.448;2022-07-12T00:04:19;1.67;;;0.63;;
18740;SDS011;9499;52.472;13.448;2022-07-12T00:06:46;2.80;;;1.40;;
18740;SDS011;9499;52.472;13.448;2022-07-12T00:09:12;2.23;;;1.13;;
18740;SDS011;9499;52.472;13.448;2022-07-12T00:11:39;1.40;;;0.73;;
18740;SDS011;9499;52.472;13.448;2022-07-12T00:14:07;1.10;;;0.50;;
18740;SDS011;9499;52.472;13.448;2022-07-12T00:16:34;1.67;;;1.10;;
18740;SDS011;9499;52.472;13.448;2022-07-12T00:19:01;1.70;;;1.10;;
18740;SDS011;9499;52.472;13.448;2022-07-12T00:21:29;1.40;;;0.80;;
18740;SDS011;9499;52.472;13.448;2022-07-12T00:23:56;3.50;;;2.10;;
18740;SDS011;9499;52.472;13.448;2022-07-12T00:26:22;1.57;;;1.07;;
18740;SDS011;9499;52.472;13.448;2022-07-12T00:28:49;2.33;;;1.60;;
18740;SDS011;9499;52.472;13.448;2022-07-12T00:31:15;1.30;;;0.83;;
18740;SDS011;9499;52.472;13.448;2022-07-12T00:33:42;1.73;;;1.10;;
18740;SDS011;9499;52.472;13.448;2022-07-12T00:36:08;1.87;;;1.67;;
18740;SDS011;9499;52.472;13.448;2022-07-12T00:38:36;1.40;;;0.80;;
18740;SDS011;9499;52.472;13.448;2022-07-12T00:41:03;4.10;;;1.30;;
18740;SDS011;9499;52.472;13.448;2022-07-12T00:43:30;1.60;;;1.30;;
18740;SDS011;9499;52.472;13.448;2022-07-12T00:45:57;1.73;;;1.27;;
18740;SDS011;9499;52.472;13.448;2022-07-12T00:48:23;1.93;;;1.30;;
18740;SDS011;9499;52.472;13.448;2022-07-12T00:50:51;1.70;;;0.97;;
18740;SDS011;9499;52.472;13.448;2022-07-12T00:53:18;1.80;;;0.97;;
18740;SDS011;9499;52.472;13.448;2022-07-12T00:55:49;1.70;;;0.97;;
18740;SDS011;9499;52.472;13.448;2022-07-12T00:58:19;1.30;;;0.70;;
18740;SDS011;9499;52.472;13.448;2022-07-12T01:00:47;1.57;;;0.97;;
18740;SDS011;9499;52.472;13.448;2022-07-12T01:03:14;1.50;;;1.23;;
18740;SDS011;9499;52.472;13.448;2022-07-12T01:05:41;1.20;;;0.70;;
18740;SDS011;9499;52.472;13.448;2022-07-12T01:08:09;1.77;;;0.90;;
18740;SDS011;9499;52.472;13.448;2022-07-12T01:10:36;1.43;;;0.80;;
18740;SDS011;9499;52.472;13.448;2022-07-12T01:13:05;1.27;;;0.70;;
18740;SDS011;9499;52.472;13.448;2022-07-12T01:15:32;1.43;;;0.57;;
18740;SDS011;9499;52.472;13.448;2022-07-12T01:18:00;1.30;;;0.63;;
18740;SDS011;9499;52.472;13.448;2022-07-12T01:20:28;1.63;;;1.00;;
18740;SDS011;9499;52.472;13.448;2022-07-12T01:22:56;2.30;;;0.97;;
18740;SDS011;9499;52.472;13.448;2022-07-12T01:25:23;1.70;;;0.90;;
18740;SDS011;9499;52.472;13.448;2022-07-12T01:27:50;1.60;;;1.20;;
18740;SDS011;9499;52.472;13.448;2022-07-12T01:30:17;1.30;;;0.80;;
18740;SDS011;9499;52.472;13.448;2022-07-12T01:32:44;2.50;;;1.33;;
18740;SDS011;9499;52.472;13.448;2022-07-12T01:35:11;1.27;;;0.70;;
18740;SDS011;9499;52.472;13.448;2022-07-12T01:37:38;1.10;;;0.50;;
18740;SDS011;9499;52.472;13.448;2022-07-12T01:40:09;1.20;;;0.60;;
18740;SDS011;9499;52.472;13.448;2022-07-12T01:42:36;1.23;;;0.70;;
18740;SDS011;9499;52.472;13.448;2022-07-12T01:45:03;1.90;;;0.90;;
18740;SDS011;9499;52.472;13.448;2022-07-12T01:47:31;1.33;;;0.70;;
18740;SDS011;9499;52.472;13.448;2022-07-12T01:49:58;1.37;;;0.77;;
18740;SDS011;9499;52.472;13.448;2022-07-12T01:52:25;1.57;;;0.80;;
18740;SDS011;9499;52.472;13.448;2022-07-12T01:54:52;1.13;;;0.60;;
18740;SDS011;9499;52.472;13.448;2022-07-12T01:57:21;1.20;;;0.70;;
18740;SDS011;9499;52.472;13.448;2022-07-12T01:59:48;1.20;;;0.70;;
18740;SDS011;9499;52.472;13.448;2022-07-12T02:02:14;1.47;;;0.73;;
18740;SDS011;9499;52.472;13.448;2022-07-12T02:04:42;1.30;;;0.70;;
18740;SDS011;9499;52.472;13.448;2022-07-12T02:07:09;1.87;;;0.63;;
18740;SDS011;9499;52.472;13.448;2022-07-12T02:09:35;1.10;;;0.50;;
18740;SDS011;9499;52.472;13.448;2022-07-12T02:12:02;1.37;;;0.80;;
18740;SDS011;9499;52.472;13.448;2022-07-12T02:14:30;1.23;;;0.70;;
18740;SDS011;9499;52.472;13.448;2022-07-12T02:16:57;1.50;;;0.80;;
18740;SDS011;9499;52.472;13.448;2022-07-12T02:19:23;1.77;;;0.70;;
18740;SDS011;9499;52.472;13.448;2022-07-12T02:21:50;1.17;;;0.57;;
18740;SDS011;9499;52.472;13.448;2022-07-12T02:24:17;1.13;;;0.50;;
18740;SDS011;9499;52.472;13.448;2022-07-12T02:26:44;1.20;;;0.70;;
18740;SDS011;9499;52.472;13.448;2022-07-12T02:29:10;2.30;;;1.00;;
18740;SDS011;9499;52.472;13.448;2022-07-12T02:31:38;1.37;;;1.00;;
18740;SDS011;9499;52.472;13.448;2022-07-12T02:34:05;1.27;;;0.70;;
18740;SDS011;9499;52.472;13.448;2022-07-12T02:36:32;1.37;;;0.80;;
18740;SDS011;9499;52.472;13.448;2022-07-12T02:38:58;1.47;;;0.93;;
18740;SDS011;9499;52.472;13.448;2022-07-12T02:41:27;1.30;;;0.80;;
18740;SDS011;9499;52.472;13.448;2022-07-12T02:43:54;1.20;;;0.67;;
18740;SDS011;9499;52.472;13.448;2022-07-12T02:46:21;1.43;;;1.33;;
18740;SDS011;9499;52.472;13.448;2022-07-12T02:48:48;1.40;;;0.80;;
18740;SDS011;9499;52.472;13.448;2022-07-12T02:51:15;1.40;;;0.70;;
18740;SDS011;9499;52.472;13.448;2022-07-12T02:53:41;1.43;;;0.90;;
18740;SDS011;9499;52.472;13.448;2022-07-12T02:56:08;1.70;;;1.37;;
18740;SDS011;9499;52.472;13.448;2022-07-12T02:58:35;2.00;;;1.20;;
18740;SDS011;9499;52.472;13.448;2022-07-12T03:01:02;1.40;;;0.73;;
18740;SDS011;9499;52.472;13.448;2022-07-12T03:03:29;1.27;;;0.77;;
18740;SDS011;9499;52.472;13.448;2022-07-12T03:05:57;1.20;;;0.60;;
18740;SDS011;9499;52.472;13.448;2022-07-12T03:08:24;1.20;;;0.70;;
18740;SDS011;9499;52.472;13.448;2022-07-12T03:10:50;1.20;;;0.70;;
18740;SDS011;9499;52.472;13.448;2022-07-12T03:13:17;1.60;;;1.10;;
18740;SDS011;9499;52.472;13.448;2022-07-12T03:15:43;1.40;;;0.93;;
18740;SDS011;9499;52.472;13.448;2022-07-12T03:18:11;1.50;;;1.03;;
18740;SDS011;9499;52.472;13.448;2022-07-12T03:20:38;1.10;;;0.60;;
18740;SDS011;9499;52.472;13.448;2022-07-12T03:23:06;1.30;;;0.90;;
18740;SDS011;9499;52.472;13.448;2022-07-12T03:25:32;1.20;;;0.60;;
18740;SDS011;9499;52.472;13.448;2022-07-12T03:27:59;1.30;;;0.90;;
18740;SDS011;9499;52.472;13.448;2022-07-12T03:30:25;1.20;;;0.70;;
18740;SDS011;9499;52.472;13.448;2022-07-12T03:32:53;1.40;;;0.77;;
18740;SDS011;9499;52.472;13.448;2022-07-12T03:35:19;1.60;;;0.70;;
18740;SDS011;9499;52.472;13.448;2022-07-12T03:37:46;1.93;;;1.10;;
18740;SDS011;9499;52.472;13.448;2022-07-12T03:40:16;1.10;;;0.60;;
18740;SDS011;9499;52.472;13.448;2022-07-12T03:42:44;2.80;;;0.80;;
18740;SDS011;9499;52.472;13.448;2022-07-12T03:45:12;1.20;;;0.60;;
18740;SDS011;9499;52.472;13.448;2022-07-12T03:47:39;1.10;;;0.60;;
18740;SDS011;9499;52.472;13.448;2022-07-12T03:50:07;1.10;;;0.50;;
18740;SDS011;9499;52.472;13.448;2022-07-12T03:52:36;1.20;;;0.80;;
18740;SDS011;9499;52.472;13.448;2022-07-12T03:55:03;1.10;;;0.50;;
18740;SDS011;9499;52.472;13.448;2022-07-12T03:57:31;1.20;;;0.60;;
18740;SDS011;9499;52.472;13.448;2022-07-12T03:59:58;1.20;;;0.60;;
18740;SDS011;9499;52.472;13.448;2022-07-12T04:02:24;1.10;;;0.50;;
18740;SDS011;9499;52.472;13.448;2022-07-12T04:04:51;1.40;;;1.00;;
18740;SDS011;9499;52.472;13.448;2022-07-12T04:07:18;1.63;;;0.77;;
18740;SDS011;9499;52.472;13.448;2022-07-12T04:09:45;1.10;;;0.53;;
18740;SDS011;9499;52.472;13.448;2022-07-12T04:12:11;1.10;;;0.50;;
18740;SDS011;9499;52.472;13.448;2022-07-12T04:14:39;1.10;;;0.60;;
18740;SDS011;9499;52.472;13.448;2022-07-12T04:17:06;1.20;;;0.63;;
18740;SDS011;9499;52.472;13.448;2022-07-12T04:19:32;1.30;;;0.70;;
18740;SDS011;9499;52.472;13.448;2022-07-12T04:21:59;1.40;;;0.97;;
18740;SDS011;9499;52.472;13.448;2022-07-12T04:24:26;1.30;;;0.80;;
18740;SDS011;9499;52.472;13.448;2022-07-12T04:26:52;1.70;;;0.90;;
18740;SDS011;9499;52.472;13.448;2022-07-12T04:29:20;1.23;;;0.83;;
18740;SDS011;9499;52.472;13.448;2022-07-12T04:31:48;2.60;;;0.80;;
18740;SDS011;9499;52.472;13.448;2022-07-12T04:34:15;1.13;;;0.60;;
18740;SDS011;9499;52.472;13.448;2022-07-12T04:36:42;1.10;;;0.67;;
18740;SDS011;9499;52.472;13.448;2022-07-12T04:39:09;1.50;;;0.73;;
18740;SDS011;9499;52.472;13.448;2022-07-12T04:41:36;1.40;;;0.83;;
18740;SDS011;9499;52.472;13.448;2022-07-12T04:44:02;1.50;;;0.77;;
18740;SDS011;9499;52.472;13.448;2022-07-12T04:46:29;1.30;;;1.00;;
18740;SDS011;9499;52.472;13.448;2022-07-12T04:48:57;1.10;;;0.60;;
18740;SDS011;9499;52.472;13.448;2022-07-12T04:51:24;1.40;;;0.67;;
18740;SDS011;9499;52.472;13.448;2022-07-12T04:53:50;1.10;;;0.50;;
18740;SDS011;9499;52.472;13.448;2022-07-12T04:56:17;1.10;;;0.50;;
18740;SDS011;9499;52.472;13.448;2022-07-12T04:58:43;1.20;;;0.63;;
18740;SDS011;9499;52.472;13.448;2022-07-12T05:01:10;1.20;;;0.73;;
18740;SDS011;9499;52.472;13.448;2022-07-12T05:03:36;2.37;;;1.47;;
18740;SDS011;9499;52.472;13.448;2022-07-12T05:06:04;1.30;;;0.70;;
18740;SDS011;9499;52.472;13.448;2022-07-12T05:08:31;1.10;;;0.57;;
18740;SDS011;9499;52.472;13.448;2022-07-12T05:10:59;1.20;;;0.70;;
18740;SDS011;9499;52.472;13.448;2022-07-12T05:13:25;1.10;;;0.50;;
18740;SDS011;9499;52.472;13.448;2022-07-12T05:15:52;1.10;;;0.60;;
18740;SDS011;9499;52.472;13.448;2022-07-12T05:18:18;1.20;;;0.60;;
18740;SDS011;9499;52.472;13.448;2022-07-12T05:20:45;1.40;;;0.67;;
18740;SDS011;9499;52.472;13.448;2022-07-12T05:23:13;1.10;;;0.60;;
18740;SDS011;9499;52.472;13.448;2022-07-12T05:25:40;1.30;;;0.73;;
18740;SDS011;9499;52.472;13.448;2022-07-12T05:28:06;1.10;;;0.40;;
18740;SDS011;9499;52.472;13.448;2022-07-12T05:30:33;1.43;;;0.93;;
18740;SDS011;9499;52.472;13.448;2022-07-12T05:32:59;1.20;;;0.60;;
18740;SDS011;9499;52.472;13.448;2022-07-12T05:35:26;1.30;;;0.60;;
18740;SDS011;9499;52.472;13.448;2022-07-12T05:37:52;1.10;;;0.50;;
18740;SDS011;9499;52.472;13.448;2022-07-12T05:40:20;3.20;;;0.60;;
18740;SDS011;9499;52.472;13.448;2022-07-12T05:42:47;1.10;;;0.60;;
18740;SDS011;9499;52.472;13.448;2022-07-12T05:45:13;1.33;;;1.00;;
18740;SDS011;9499;52.472;13.448;2022-07-12T05:47:40;1.30;;;0.70;;
18740;SDS011;9499;52.472;13.448;2022-07-12T05:50:07;1.30;;;0.90;;
18740;SDS011;9499;52.472;13.448;2022-07-12T05:52:34;5.53;;;0.90;;
18740;SDS011;9499;52.472;13.448;2022-07-12T05:55:18;1.40;;;0.50;;
18740;SDS011;9499;52.472;13.448;2022-07-12T05:57:46;3.77;;;1.00;;
18740;SDS011;9499;52.472;13.448;2022-07-12T06:00:13;1.20;;;0.60;;
18740;SDS011;9499;52.472;13.448;2022-07-12T06:02:40;1.10;;;0.50;;
18740;SDS011;9499;52.472;13.448;2022-07-12T06:05:07;1.20;;;0.60;;
18740;SDS011;9499;52.472;13.448;2022-07-12T06:07:34;1.10;;;0.50;;
18740;SDS011;9499;52.472;13.448;2022-07-12T06:10:01;1.50;;;0.60;;
18740;SDS011;9499;52.472;13.448;2022-07-12T06:12:28;1.17;;;0.60;;
18740;SDS011;9499;52.472;13.448;2022-07-12T06:14:56;1.10;;;0.50;;
18740;SDS011;9499;52.472;13.448;2022-07-12T06:17:22;1.10;;;0.60;;
18740;SDS011;9499;52.472;13.448;2022-07-12T06:19:49;1.10;;;0.40;;
18740;SDS011;9499;52.472;13.448;2022-07-12T06:22:15;1.37;;;0.70;;
18740;SDS011;9499;52.472;13.448;2022-07-12T06:24:42;1.10;;;0.50;;
18740;SDS011;9499;52.472;13.448;2022-07-12T06:27:08;1.10;;;0.40;;
18740;SDS011;9499;52.472;13.448;2022-07-12T06:29:35;1.27;;;0.60;;
18740;SDS011;9499;52.472;13.448;2022-07-12T06:32:03;1.10;;;0.50;;
18740;SDS011;9499;52.472;13.448;2022-07-12T06:34:30;1.20;;;0.60;;
18740;SDS011;9499;52.472;13.448;2022-07-12T06:36:56;3.20;;;0.70;;
18740;SDS011;9499;52.472;13.448;2022-07-12T06:39:23;1.10;;;0.40;;
18740;SDS011;9499;52.472;13.448;2022-07-12T06:41:49;1.10;;;0.50;;
18740;SDS011;9499;52.472;13.448;2022-07-12T06:44:16;1.47;;;0.50;;
18740;SDS011;9499;52.472;13.448;2022-07-12T06:46:42;1.10;;;0.40;;
18740;SDS011;9499;52.472;13.448;2022-07-12T06:49:10;1.10;;;0.40;;
18740;SDS011;9499;52.472;13.448;2022-07-12T06:51:36;1.47;;;0.57;;
18740;SDS011;9499;52.472;13.448;2022-07-12T06:54:04;1.20;;;0.57;;
18740;SDS011;9499;52.472;13.448;2022-07-12T06:56:30;1.10;;;0.40;;
18740;SDS011;9499;52.472;13.448;2022-07-12T06:58:57;1.30;;;0.50;;
18740;SDS011;9499;52.472;13.448;2022-07-12T07:01:24;1.17;;;0.60;;
18740;SDS011;9499;52.472;13.448;2022-07-12T07:03:50;1.10;;;0.50;;
18740;SDS011;9499;52.472;13.448;2022-07-12T07:06:18;2.33;;;0.97;;
18740;SDS011;9499;52.472;13.448;2022-07-12T07:08:45;1.20;;;0.57;;
18740;SDS011;9499;52.472;13.448;2022-07-12T07:11:11;1.10;;;0.40;;
18740;SDS011;9499;52.472;13.448;2022-07-12T07:13:38;1.13;;;0.50;;
18740;SDS011;9499;52.472;13.448;2022-07-12T07:16:05;1.20;;;0.53;;
18740;SDS011;9499;52.472;13.448;2022-07-12T07:18:31;1.10;;;0.40;;
18740;SDS011;9499;52.472;13.448;2022-07-12T07:20:58;1.17;;;0.50;;
18740;SDS011;9499;52.472;13.448;2022-07-12T07:23:26;1.27;;;0.83;;
18740;SDS011;9499;52.472;13.448;2022-07-12T07:25:53;1.20;;;0.50;;
18740;SDS011;9499;52.472;13.448;2022-07-12T07:28:19;1.10;;;0.50;;
18740;SDS011;9499;52.472;13.448;2022-07-12T07:30:46;1.10;;;0.40;;
18740;SDS011;9499;52.472;13.448;2022-07-12T07:33:17;1.20;;;0.70;;
18740;SDS011;9499;52.472;13.448;2022-07-12T07:35:44;1.23;;;0.50;;
18740;SDS011;9499;52.472;13.448;2022-07-12T07:38:10;1.20;;;0.43;;
18740;SDS011;9499;52.472;13.448;2022-07-12T07:40:38;1.10;;;0.40;;
18740;SDS011;9499;52.472;13.448;2022-07-12T07:43:04;1.30;;;0.60;;
18740;SDS011;9499;52.472;13.448;2022-07-12T07:45:31;1.10;;;0.40;;
18740;SDS011;9499;52.472;13.448;2022-07-12T07:47:58;1.40;;;0.43;;
18740;SDS011;9499;52.472;13.448;2022-07-12T07:50:25;1.10;;;0.50;;
18740;SDS011;9499;52.472;13.448;2022-07-12T07:52:52;1.10;;;0.43;;
18740;SDS011;9499;52.472;13.448;2022-07-12T07:55:19;1.37;;;0.50;;
18740;SDS011;9499;52.472;13.448;2022-07-12T07:57:46;1.10;;;0.47;;
18740;SDS011;9499;52.472;13.448;2022-07-12T08:00:13;1.10;;;0.40;;
18740;SDS011;9499;52.472;13.448;2022-07-12T08:02:40;1.50;;;0.73;;
18740;SDS011;9499;52.472;13.448;2022-07-12T08:05:07;1.10;;;0.40;;
18740;SDS011;9499;52.472;13.448;2022-07-12T08:07:34;1.20;;;0.50;;
18740;SDS011;9499;52.472;13.448;2022-07-12T08:10:01;1.10;;;0.40;;
18740;SDS011;9499;52.472;13.448;2022-07-12T08:12:27;1.20;;;0.50;;
18740;SDS011;9499;52.472;13.448;2022-07-12T08:14:55;1.10;;;0.40;;
18740;SDS011;9499;52.472;13.448;2022-07-12T08:17:22;1.10;;;0.40;;
18740;SDS011;9499;52.472;13.448;2022-07-12T08:19:48;3.10;;;0.83;;
18740;SDS011;9499;52.472;13.448;2022-07-12T08:22:15;1.10;;;0.40;;
18740;SDS011;9499;52.472;13.448;2022-07-12T08:24:41;1.10;;;0.30;;
18740;SDS011;9499;52.472;13.448;2022-07-12T08:27:08;1.10;;;0.47;;
18740;SDS011;9499;52.472;13.448;2022-07-12T08:29:34;1.13;;;0.47;;
18740;SDS011;9499;52.472;13.448;2022-07-12T08:32:02;1.27;;;0.47;;
18740;SDS011;9499;52.472;13.448;2022-07-12T08:34:30;1.10;;;0.40;;
18740;SDS011;9499;52.472;13.448;2022-07-12T08:36:57;1.20;;;0.43;;
18740;SDS011;9499;52.472;13.448;2022-07-12T08:39:23;1.10;;;0.40;;
18740;SDS011;9499;52.472;13.448;2022-07-12T08:41:50;1.20;;;0.40;;
18740;SDS011;9499;52.472;13.448;2022-07-12T08:44:17;1.10;;;0.30;;
18740;SDS011;9499;52.472;13.448;2022-07-12T08:46:43;1.23;;;0.50;;
18740;SDS011;9499;52.472;13.448;2022-07-12T08:49:13;1.10;;;0.30;;
18740;SDS011;9499;52.472;13.448;2022-07-12T08:51:39;1.10;;;0.40;;
18740;SDS011;9499;52.472;13.448;2022-07-12T08:54:06;1.20;;;0.50;;
18740;SDS011;9499;52.472;13.448;2022-07-12T08:56:34;1.57;;;0.57;;
18740;SDS011;9499;52.472;13.448;2022-07-12T08:59:09;1.60;;;0.53;;
18740;SDS011;9499;52.472;13.448;2022-07-12T09:01:40;1.10;;;0.40;;
18740;SDS011;9499;52.472;13.448;2022-07-12T09:04:12;1.43;;;0.40;;
18740;SDS011;9499;52.472;13.448;2022-07-12T09:06:40;1.10;;;0.40;;
18740;SDS011;9499;52.472;13.448;2022-07-12T09:09:06;1.10;;;0.40;;
18740;SDS011;9499;52.472;13.448;2022-07-12T09:11:38;1.40;;;0.37;;
18740;SDS011;9499;52.472;13.448;2022-07-12T09:14:05;1.10;;;0.30;;
18740;SDS011;9499;52.472;13.448;2022-07-12T09:16:32;1.30;;;0.40;;
18740;SDS011;9499;52.472;13.448;2022-07-12T09:19:12;1.40;;;0.50;;
18740;SDS011;9499;52.472;13.448;2022-07-12T09:21:45;1.20;;;0.60;;
18740;SDS011;9499;52.472;13.448;2022-07-12T09:24:14;1.20;;;0.40;;
18740;SDS011;9499;52.472;13.448;2022-07-12T09:26:41;1.10;;;0.30;;
18740;SDS011;9499;52.472;13.448;2022-07-12T09:29:09;1.13;;;0.40;;
18740;SDS011;9499;52.472;13.448;2022-07-12T09:31:43;1.10;;;0.30;;
18740;SDS011;9499;52.472;13.448;2022-07-12T09:34:34;1.30;;;0.63;;
18740;SDS011;9499;52.472;13.448;2022-07-12T09:37:19;1.20;;;0.40;;
18740;SDS011;9499;52.472;13.448;2022-07-12T09:39:46;1.10;;;0.30;;
18740;SDS011;9499;52.472;13.448;2022-07-12T09:42:13;1.10;;;0.40;;
18740;SDS011;9499;52.472;13.448;2022-07-12T09:44:40;1.10;;;0.30;;
18740;SDS011;9499;52.472;13.448;2022-07-12T09:47:09;1.10;;;0.30;;
18740;SDS011;9499;52.472;13.448;2022-07-12T09:49:38;1.20;;;0.33;;
18740;SDS011;9499;52.472;13.448;2022-07-12T09:52:05;1.30;;;0.37;;
18740;SDS011;9499;52.472;13.448;2022-07-12T09:54:38;1.10;;;0.33;;
18740;SDS011;9499;52.472;13.448;2022-07-12T09:57:09;1.10;;;0.30;;
18740;SDS011;9499;52.472;13.448;2022-07-12T09:59:44;1.10;;;0.30;;
18740;SDS011;9499;52.472;13.448;2022-07-12T10:02:10;1.20;;;0.40;;
18740;SDS011;9499;52.472;13.448;2022-07-12T10:04:41;1.20;;;0.40;;
18740;SDS011;9499;52.472;13.448;2022-07-12T10:07:08;1.27;;;0.50;;
18740;SDS011;9499;52.472;13.448;2022-07-12T10:09:38;1.10;;;0.30;;
18740;SDS011;9499;52.472;13.448;2022-07-12T10:12:05;1.80;;;0.70;;
18740;SDS011;9499;52.472;13.448;2022-07-12T10:14:33;1.13;;;0.37;;
18740;SDS011;9499;52.472;13.448;2022-07-12T10:17:00;1.10;;;0.30;;
18740;SDS011;9499;52.472;13.448;2022-07-12T10:19:33;1.10;;;0.30;;
18740;SDS011;9499;52.472;13.448;2022-07-12T10:22:02;1.67;;;0.70;;
18740;SDS011;9499;52.472;13.448;2022-07-12T10:24:49;1.10;;;0.20;;
18740;SDS011;9499;52.472;13.448;2022-07-12T10:27:26;2.80;;;0.97;;
18740;SDS011;9499;52.472;13.448;2022-07-12T10:30:11;1.30;;;0.40;;
18740;SDS011;9499;52.472;13.448;2022-07-12T10:32:41;1.10;;;0.30;;
18740;SDS011;9499;52.472;13.448;2022-07-12T10:35:11;1.10;;;0.20;;
18740;SDS011;9499;52.472;13.448;2022-07-12T10:37:41;1.20;;;0.40;;
18740;SDS011;9499;52.472;13.448;2022-07-12T10:40:10;1.10;;;0.30;;
18740;SDS011;9499;52.472;13.448;2022-07-12T10:42:37;1.20;;;0.43;;
18740;SDS011;9499;52.472;13.448;2022-07-12T10:45:09;1.20;;;0.40;;
18740;SDS011;9499;52.472;13.448;2022-07-12T10:47:53;1.20;;;0.40;;
18740;SDS011;9499;52.472;13.448;2022-07-12T10:50:29;1.77;;;0.40;;
18740;SDS011;9499;52.472;13.448;2022-07-12T10:53:28;1.10;;;0.40;;
18740;SDS011;9499;52.472;13.448;2022-07-12T10:58:52;1.10;;;0.30;;
18740;SDS011;9499;52.472;13.448;2022-07-12T11:01:21;1.10;;;0.30;;
18740;SDS011;9499;52.472;13.448;2022-07-12T11:03:49;1.13;;;0.33;;
18740;SDS011;9499;52.472;13.448;2022-07-12T11:06:18;1.10;;;0.30;;
18740;SDS011;9499;52.472;13.448;2022-07-12T11:08:50;1.30;;;0.40;;
18740;SDS011;9499;52.472;13.448;2022-07-12T11:11:19;1.10;;;0.30;;
18740;SDS011;9499;52.472;13.448;2022-07-12T11:13:46;1.30;;;0.40;;
18740;SDS011;9499;52.472;13.448;2022-07-12T11:16:13;1.50;;;0.77;;
18740;SDS011;9499;52.472;13.448;2022-07-12T11:18:41;1.20;;;0.30;;
18740;SDS011;9499;52.472;13.448;2022-07-12T11:21:08;1.40;;;0.50;;
18740;SDS011;9499;52.472;13.448;2022-07-12T11:23:35;1.10;;;0.20;;
18740;SDS011;9499;52.472;13.448;2022-07-12T11:26:03;1.10;;;0.30;;
18740;SDS011;9499;52.472;13.448;2022-07-12T11:28:30;1.20;;;0.40;;
18740;SDS011;9499;52.472;13.448;2022-07-12T11:31:01;1.10;;;0.30;;
18740;SDS011;9499;52.472;13.448;2022-07-12T11:33:29;1.10;;;0.30;;
18740;SDS011;9499;52.472;13.448;2022-07-12T11:35:58;1.13;;;0.30;;
18740;SDS011;9499;52.472;13.448;2022-07-12T11:38:25;1.43;;;0.50;;
18740;SDS011;9499;52.472;13.448;2022-07-12T11:40:54;1.10;;;0.30;;
18740;SDS011;9499;52.472;13.448;2022-07-12T11:43:23;1.10;;;0.30;;
18740;SDS011;9499;52.472;13.448;2022-07-12T11:45:50;1.10;;;0.30;;
18740;SDS011;9499;52.472;13.448;2022-07-12T11:48:17;1.10;;;0.23;;
18740;SDS011;9499;52.472;13.448;2022-07-12T11:50:44;1.30;;;0.40;;
18740;SDS011;9499;52.472;13.448;2022-07-12T11:53:14;1.47;;;0.33;;
18740;SDS011;9499;52.472;13.448;2022-07-12T11:55:43;1.13;;;0.33;;
18740;SDS011;9499;52.472;13.448;2022-07-12T11:58:12;1.27;;;0.30;;
18740;SDS011;9499;52.472;13.448;2022-07-12T12:00:40;1.20;;;0.30;;
18740;SDS011;9499;52.472;13.448;2022-07-12T12:03:07;1.57;;;0.87;;
18740;SDS011;9499;52.472;13.448;2022-07-12T12:05:34;1.50;;;0.40;;
18740;SDS011;9499;52.472;13.448;2022-07-12T12:08:02;1.10;;;0.27;;
18740;SDS011;9499;52.472;13.448;2022-07-12T12:10:29;1.10;;;0.30;;
18740;SDS011;9499;52.472;13.448;2022-07-12T12:12:56;2.33;;;0.40;;
18740;SDS011;9499;52.472;13.448;2022-07-12T12:15:24;1.20;;;0.30;;
18740;SDS011;9499;52.472;13.448;2022-07-12T12:17:54;1.20;;;0.50;;
18740;SDS011;9499;52.472;13.448;2022-07-12T12:20:22;1.20;;;0.40;;
18740;SDS011;9499;52.472;13.448;2022-07-12T12:22:51;1.30;;;0.40;;
18740;SDS011;9499;52.472;13.448;2022-07-12T12:25:19;1.10;;;0.30;;
18740;SDS011;9499;52.472;13.448;2022-07-12T12:27:47;1.20;;;0.30;;
18740;SDS011;9499;52.472;13.448;2022-07-12T12:30:15;1.20;;;0.40;;
18740;SDS011;9499;52.472;13.448;2022-07-12T12:32:43;1.37;;;0.43;;
18740;SDS011;9499;52.472;13.448;2022-07-12T12:35:12;1.17;;;0.33;;
18740;SDS011;9499;52.472;13.448;2022-07-12T12:37:40;1.20;;;0.30;;
18740;SDS011;9499;52.472;13.448;2022-07-12T12:40:07;1.10;;;0.30;;
18740;SDS011;9499;52.472;13.448;2022-07-12T12:42:35;1.10;;;0.30;;
18740;SDS011;9499;52.472;13.448;2022-07-12T12:45:01;1.37;;;0.60;;
18740;SDS011;9499;52.472;13.448;2022-07-12T12:47:29;1.10;;;0.30;;
18740;SDS011;9499;52.472;13.448;2022-07-12T12:49:59;1.20;;;0.40;;
18740;SDS011;9499;52.472;13.448;2022-07-12T12:52:28;1.10;;;0.20;;
18740;SDS011;9499;52.472;13.448;2022-07-12T12:54:55;1.30;;;0.40;;
18740;SDS011;9499;52.472;13.448;2022-07-12T12:57:23;1.10;;;0.30;;
18740;SDS011;9499;52.472;13.448;2022-07-12T12:59:50;1.10;;;0.30;;
18740;SDS011;9499;52.472;13.448;2022-07-12T13:02:17;1.20;;;0.40;;
18740;SDS011;9499;52.472;13.448;2022-07-12T13:04:45;1.43;;;0.50;;
18740;SDS011;9499;52.472;13.448;2022-07-12T13:07:11;1.30;;;0.50;;
18740;SDS011;9499;52.472;13.448;2022-07-12T13:09:39;1.20;;;0.30;;
18740;SDS011;9499;52.472;13.448;2022-07-12T13:12:07;1.10;;;0.30;;
18740;SDS011;9499;52.472;13.448;2022-07-12T13:14:38;1.10;;;0.30;;
18740;SDS011;9499;52.472;13.448;2022-07-12T13:17:04;1.10;;;0.30;;
18740;SDS011;9499;52.472;13.448;2022-07-12T13:19:31;1.20;;;0.40;;
18740;SDS011;9499;52.472;13.448;2022-07-12T13:21:57;1.17;;;0.30;;
18740;SDS011;9499;52.472;13.448;2022-07-12T13:24:24;1.77;;;0.50;;
18740;SDS011;9499;52.472;13.448;2022-07-12T13:26:52;1.40;;;0.40;;
18740;SDS011;9499;52.472;13.448;2022-07-12T13:29:19;1.57;;;0.77;;
18740;SDS011;9499;52.472;13.448;2022-07-12T13:31:45;1.20;;;0.40;;
18740;SDS011;9499;52.472;13.448;2022-07-12T13:34:12;1.10;;;0.27;;
18740;SDS011;9499;52.472;13.448;2022-07-12T13:36:38;1.10;;;0.30;;
18740;SDS011;9499;52.472;13.448;2022-07-12T13:39:05;1.20;;;0.30;;
18740;SDS011;9499;52.472;13.448;2022-07-12T13:41:45;1.33;;;0.60;;
18740;SDS011;9499;52.472;13.448;2022-07-12T13:44:13;1.30;;;0.50;;
18740;SDS011;9499;52.472;13.448;2022-07-12T13:46:40;1.20;;;0.30;;
18740;SDS011;9499;52.472;13.448;2022-07-12T13:49:06;1.10;;;0.30;;
18740;SDS011;9499;52.472;13.448;2022-07-12T13:51:33;1.10;;;0.30;;
18740;SDS011;9499;52.472;13.448;2022-07-12T13:53:59;1.20;;;0.30;;
18740;SDS011;9499;52.472;13.448;2022-07-12T13:56:26;1.10;;;0.30;;
18740;SDS011;9499;52.472;13.448;2022-07-12T13:58:52;1.10;;;0.30;;
18740;SDS011;9499;52.472;13.448;2022-07-12T14:01:20;1.10;;;0.33;;
18740;SDS011;9499;52.472;13.448;2022-07-12T14:03:47;1.30;;;0.40;;
18740;SDS011;9499;52.472;13.448;2022-07-12T14:06:13;1.30;;;0.40;;
18740;SDS011;9499;52.472;13.448;2022-07-12T14:08:40;1.10;;;0.30;;
18740;SDS011;9499;52.472;13.448;2022-07-12T14:11:06;1.20;;;0.37;;
18740;SDS011;9499;52.472;13.448;2022-07-12T14:13:33;1.10;;;0.30;;
18740;SDS011;9499;52.472;13.448;2022-07-12T14:15:59;1.20;;;0.30;;
18740;SDS011;9499;52.472;13.448;2022-07-12T14:18:27;1.20;;;0.30;;
18740;SDS011;9499;52.472;13.448;2022-07-12T14:20:54;1.20;;;0.50;;
18740;SDS011;9499;52.472;13.448;2022-07-12T14:23:20;1.33;;;0.30;;
18740;SDS011;9499;52.472;13.448;2022-07-12T14:25:47;1.53;;;0.77;;
18740;SDS011;9499;52.472;13.448;2022-07-12T14:28:13;1.10;;;0.30;;
18740;SDS011;9499;52.472;13.448;2022-07-12T14:30:40;1.10;;;0.20;;
18740;SDS011;9499;52.472;13.448;2022-07-12T14:33:07;1.10;;;0.30;;
18740;SDS011;9499;52.472;13.448;2022-07-12T14:35:35;1.47;;;0.33;;
18740;SDS011;9499;52.472;13.448;2022-07-12T14:38:01;1.10;;;0.30;;
18740;SDS011;9499;52.472;13.448;2022-07-12T14:40:28;1.10;;;0.30;;
18740;SDS011;9499;52.472;13.448;2022-07-12T14:42:54;1.10;;;0.30;;
18740;SDS011;9499;52.472;13.448;2022-07-12T14:45:22;1.20;;;0.30;;
18740;SDS011;9499;52.472;13.448;2022-07-12T14:47:49;1.10;;;0.30;;
18740;SDS011;9499;52.472;13.448;2022-07-12T14:50:15;1.10;;;0.20;;
18740;SDS011;9499;52.472;13.448;2022-07-12T14:52:43;1.10;;;0.30;;
18740;SDS011;9499;52.472;13.448;2022-07-12T14:55:10;2.03;;;0.77;;